Time;durP1;ratioP1;P1;durP2;ratioP2;P2;SDS_P1;SDS_P2;PMS_P1;PMS_P2;Temp;Humidity;BMP_temperature;BMP_pressure;BME280_temperature;BME280_humidity;BME280_pressure;Samples;Min_cycle;Max_cycle;Signal;HPM_P1;HPM_P2
2021/07/25 00:00:11;;;;;;;17.42;9.65;;;23.60;82.60;;;;;;5085577;28;20028;-66
2021/07/25 00:02:36;;;;;;;20.95;8.50;;;23.60;82.90;;;;;;5094406;28;20078;-66
2021/07/25 00:05:04;;;;;;;20.80;10.18;;;23.50;82.90;;;;;;5091870;28;20020;-66
2021/07/25 00:07:30;;;;;;;14.40;9.18;;;23.50;83.20;;;;;;5091071;28;20116;-66
2021/07/25 00:09:55;;;;;;;13.93;9.07;;;23.40;83.40;;;;;;5092236;28;20053;-66
2021/07/25 00:12:21;;;;;;;23.90;10.27;;;23.40;83.80;;;;;;5080533;28;20403;-68
2021/07/25 00:14:47;;;;;;;23.63;11.10;;;23.40;84.10;;;;;;5090262;28;20035;-67
2021/07/25 00:17:13;;;;;;;16.00;10.15;;;23.40;84.20;;;;;;5075893;28;20028;-68
2021/07/25 00:19:38;;;;;;;20.73;9.70;;;23.30;84.00;;;;;;5074566;28;20038;-66
2021/07/25 00:22:05;;;;;;;24.98;10.90;;;23.20;83.90;;;;;;5088415;28;20439;-65
2021/07/25 00:24:33;;;;;;;18.90;9.95;;;23.30;84.10;;;;;;5093458;28;20054;-65
2021/07/25 00:27:02;;;;;;;19.75;10.35;;;23.20;84.10;;;;;;5092860;28;20038;-65
2021/07/25 00:29:31;;;;;;;21.02;8.52;;;23.20;84.10;;;;;;5093826;28;20036;-65
2021/07/25 00:32:05;;;;;;;15.65;10.05;;;23.20;84.80;;;;;;5092220;28;20036;-65
2021/07/25 00:34:32;;;;;;;16.20;10.02;;;23.20;84.50;;;;;;5092672;28;20043;-65
2021/07/25 00:36:58;;;;;;;14.82;9.35;;;23.10;84.60;;;;;;5092454;28;20024;-65
2021/07/25 00:39:25;;;;;;;20.23;10.52;;;23.10;85.00;;;;;;5093951;28;20024;-65
2021/07/25 00:41:51;;;;;;;18.60;10.45;;;23.10;85.40;;;;;;5088193;28;20028;-66
2021/07/25 00:44:18;;;;;;;17.65;9.82;;;23.10;85.80;;;;;;5092026;28;20039;-65
2021/07/25 00:46:48;;;;;;;25.50;11.38;;;23.10;86.10;;;;;;5090686;28;20048;-65
2021/07/25 00:49:14;;;;;;;18.17;10.85;;;23.10;86.10;;;;;;5091979;28;20023;-65
2021/07/25 00:51:40;;;;;;;33.67;13.10;;;23.10;86.20;;;;;;5088044;28;20040;-65
2021/07/25 00:54:06;;;;;;;19.70;10.27;;;23.00;86.40;;;;;;5081977;28;20098;-65
2021/07/25 00:56:32;;;;;;;18.95;11.05;;;23.00;86.20;;;;;;5087812;28;20032;-65
2021/07/25 00:58:58;;;;;;;26.60;12.68;;;23.00;86.20;;;;;;5092355;28;20111;-65
2021/07/25 01:01:23;;;;;;;23.60;10.57;;;22.90;86.70;;;;;;5092608;28;20031;-65
2021/07/25 01:04:07;;;;;;;18.50;10.30;;;23.00;86.80;;;;;;5085690;28;20460;-65
2021/07/25 01:07:15;;;;;;;22.20;10.40;;;23.00;87.00;;;;;;5091418;28;20023;-65
2021/07/25 01:10:04;;;;;;;27.95;11.10;;;22.90;86.90;;;;;;5080372;28;20456;-65
2021/07/25 01:12:52;;;;;;;25.02;11.75;;;22.90;87.00;;;;;;5092265;28;20475;-65
2021/07/25 01:15:20;;;;;;;20.05;10.38;;;22.90;87.80;;;;;;5092455;28;20051;-65
2021/07/25 01:17:46;;;;;;;23.23;11.63;;;22.90;87.70;;;;;;5092032;28;20055;-65
2021/07/25 01:20:12;;;;;;;27.58;10.18;;;22.90;87.10;;;;;;5084224;28;20468;-65
2021/07/25 01:22:43;;;;;;;24.63;10.85;;;22.80;87.00;;;;;;5079868;28;20119;-65
2021/07/25 01:25:11;;;;;;;15.85;9.20;;;22.80;87.00;;;;;;5079956;28;20031;-65
2021/07/25 01:27:43;;;;;;;17.92;9.77;;;22.80;87.00;;;;;;5091696;28;20125;-65
2021/07/25 01:30:13;;;;;;;19.88;10.00;;;22.70;87.20;;;;;;5086922;28;20044;-65
2021/07/25 01:32:41;;;;;;;23.80;10.13;;;22.70;87.30;;;;;;5085331;28;20437;-65
2021/07/25 01:35:08;;;;;;;17.67;10.65;;;22.70;87.60;;;;;;5091848;28;20023;-66
2021/07/25 01:37:34;;;;;;;19.60;10.60;;;22.70;87.80;;;;;;5091776;28;20039;-65
2021/07/25 01:40:09;;;;;;;17.10;10.65;;;22.70;87.70;;;;;;5075735;28;20031;-65
2021/07/25 01:42:35;;;;;;;18.30;10.25;;;22.70;88.10;;;;;;5080604;28;20050;-66
2021/07/25 01:45:01;;;;;;;15.70;10.27;;;22.70;88.10;;;;;;5092337;28;20032;-66
2021/07/25 01:47:28;;;;;;;18.05;9.65;;;22.70;88.20;;;;;;5089774;28;20036;-66
2021/07/25 01:49:53;;;;;;;20.27;9.65;;;22.60;88.00;;;;;;5089098;28;20056;-66
2021/07/25 01:52:19;;;;;;;18.13;9.68;;;22.60;88.10;;;;;;5083416;28;20063;-66
2021/07/25 01:54:44;;;;;;;16.05;9.52;;;22.60;88.00;;;;;;5076818;28;20109;-66
2021/07/25 01:57:10;;;;;;;12.88;8.82;;;22.60;88.20;;;;;;5076330;28;20055;-66
2021/07/25 01:59:36;;;;;;;15.05;9.30;;;22.60;88.20;;;;;;5089633;28;20024;-66
2021/07/25 02:02:01;;;;;;;14.15;8.98;;;22.60;88.10;;;;;;5078638;28;20055;-66
2021/07/25 02:04:27;;;;;;;17.55;9.95;;;22.60;87.70;;;;;;5092518;28;20035;-66
2021/07/25 02:06:53;;;;;;;18.40;9.98;;;22.60;87.80;;;;;;5091815;28;20062;-66
2021/07/25 02:09:18;;;;;;;19.02;10.90;;;22.60;87.70;;;;;;5089561;28;20063;-66
2021/07/25 02:11:44;;;;;;;15.15;9.68;;;22.50;88.00;;;;;;5091278;28;20105;-66
2021/07/25 02:14:10;;;;;;;18.67;9.70;;;22.60;88.10;;;;;;5088856;28;20081;-66
2021/07/25 02:16:36;;;;;;;18.65;10.52;;;22.50;88.00;;;;;;5089762;28;20399;-66
2021/07/25 02:19:02;;;;;;;15.95;11.10;;;22.50;88.00;;;;;;5086452;28;20073;-66
2021/07/25 02:21:28;;;;;;;19.17;10.27;;;22.50;87.90;;;;;;5083069;28;20055;-66
2021/07/25 02:23:54;;;;;;;15.70;10.73;;;22.50;88.00;;;;;;5084279;28;20645;-66
2021/07/25 02:26:19;;;;;;;18.10;10.82;;;22.50;88.30;;;;;;5085577;28;20025;-66
2021/07/25 02:28:45;;;;;;;18.05;9.80;;;22.50;88.50;;;;;;5070888;28;20028;-66
2021/07/25 02:31:11;;;;;;;17.63;10.73;;;22.40;88.60;;;;;;5089376;28;20047;-66
2021/07/25 02:33:37;;;;;;;16.88;11.43;;;22.50;88.80;;;;;;5091676;28;20118;-66
2021/07/25 02:36:02;;;;;;;19.73;11.68;;;22.50;88.90;;;;;;5089718;28;20482;-66
2021/07/25 02:38:28;;;;;;;23.15;11.70;;;22.40;88.90;;;;;;5091259;28;20028;-66
2021/07/25 02:40:54;;;;;;;17.25;11.05;;;22.40;89.10;;;;;;5091648;28;20550;-66
2021/07/25 02:43:19;;;;;;;15.82;10.43;;;22.40;89.30;;;;;;5089303;28;20475;-66
2021/07/25 02:45:45;;;;;;;19.25;11.15;;;22.40;89.40;;;;;;5087321;28;20537;-66
2021/07/25 02:48:11;;;;;;;17.15;10.68;;;22.40;89.70;;;;;;5088974;28;20071;-66
2021/07/25 02:50:37;;;;;;;18.80;11.18;;;22.40;89.90;;;;;;5083885;28;20385;-66
2021/07/25 02:53:02;;;;;;;16.40;10.73;;;22.40;90.00;;;;;;5092004;28;20028;-66
2021/07/25 02:55:28;;;;;;;19.33;9.95;;;22.50;90.00;;;;;;5079857;28;20038;-66
2021/07/25 02:57:54;;;;;;;12.23;8.27;;;22.40;89.80;;;;;;5085445;28;20140;-66
2021/07/25 03:00:20;;;;;;;13.95;9.05;;;22.50;89.70;;;;;;5086522;28;20036;-66
2021/07/25 03:02:45;;;;;;;12.93;8.70;;;22.40;89.50;;;;;;5083829;28;20058;-66
2021/07/25 03:05:11;;;;;;;12.68;9.18;;;22.40;89.80;;;;;;5090182;28;20032;-66
2021/07/25 03:07:37;;;;;;;14.93;8.68;;;22.50;90.00;;;;;;5090568;28;20092;-66
2021/07/25 03:10:03;;;;;;;13.77;9.40;;;22.50;90.00;;;;;;5091267;28;20483;-66
2021/07/25 03:12:29;;;;;;;18.98;11.82;;;22.50;89.70;;;;;;5083162;28;20082;-66
2021/07/25 03:14:55;;;;;;;19.38;11.48;;;22.50;90.00;;;;;;5086028;28;20055;-66
2021/07/25 03:17:20;;;;;;;20.10;12.43;;;22.60;89.70;;;;;;5090849;28;20024;-67
2021/07/25 03:19:47;;;;;;;21.00;12.88;;;22.50;89.40;;;;;;5087559;28;20080;-66
2021/07/25 03:22:12;;;;;;;18.40;12.60;;;22.60;89.20;;;;;;5084884;28;20052;-66
2021/07/25 03:24:38;;;;;;;23.10;13.25;;;22.60;89.30;;;;;;5090851;28;20459;-66
2021/07/25 03:27:04;;;;;;;19.63;12.88;;;22.60;89.50;;;;;;5091888;28;20039;-66
2021/07/25 03:29:30;;;;;;;27.23;12.68;;;22.60;89.80;;;;;;5089755;28;20016;-66
2021/07/25 03:31:56;;;;;;;21.15;13.48;;;22.60;89.90;;;;;;5092162;28;20032;-66
2021/07/25 03:34:22;;;;;;;25.52;14.30;;;22.60;90.00;;;;;;5090518;28;20031;-66
2021/07/25 03:36:48;;;;;;;24.45;15.13;;;22.70;90.10;;;;;;5091246;28;20032;-66
2021/07/25 03:39:16;;;;;;;24.40;15.15;;;22.60;90.10;;;;;;5088496;28;20035;-66
2021/07/25 03:41:42;;;;;;;19.80;14.18;;;22.60;90.30;;;;;;5084553;28;20547;-66
2021/07/25 03:44:08;;;;;;;23.42;14.63;;;22.60;90.40;;;;;;5084047;28;20110;-66
2021/07/25 03:46:35;;;;;;;27.15;14.95;;;22.70;90.50;;;;;;5084258;28;20093;-66
2021/07/25 03:49:01;;;;;;;25.27;14.95;;;22.70;90.50;;;;;;5089461;28;20398;-66
2021/07/25 03:51:27;;;;;;;16.77;11.63;;;22.70;90.60;;;;;;5081950;28;20123;-66
2021/07/25 03:53:52;;;;;;;16.63;11.45;;;22.70;90.70;;;;;;5094400;28;20426;-66
2021/07/25 03:56:19;;;;;;;19.38;11.27;;;22.60;90.50;;;;;;5090269;28;20073;-66
2021/07/25 03:58:45;;;;;;;15.63;9.15;;;22.70;90.50;;;;;;5094795;28;20536;-66
2021/07/25 04:01:11;;;;;;;11.60;7.55;;;22.70;90.50;;;;;;5082067;28;20117;-66
2021/07/25 04:03:37;;;;;;;8.23;5.30;;;22.70;90.30;;;;;;5093782;28;20475;-66
2021/07/25 04:06:03;;;;;;;6.47;4.10;;;22.70;89.20;;;;;;5095382;28;20060;-66
2021/07/25 04:08:29;;;;;;;5.15;3.05;;;22.60;88.50;;;;;;5094754;28;20173;-66
2021/07/25 04:10:54;;;;;;;12.23;3.67;;;22.60;87.50;;;;;;5092640;28;20044;-67
2021/07/25 04:13:20;;;;;;;6.85;3.47;;;22.70;87.30;;;;;;5094459;28;20107;-67
2021/07/25 04:15:47;;;;;;;6.40;3.00;;;22.60;87.10;;;;;;5088427;28;20379;-69
2021/07/25 04:18:13;;;;;;;6.95;3.20;;;22.60;86.60;;;;;;5089216;28;20115;-69
2021/07/25 04:20:38;;;;;;;6.82;2.83;;;22.60;85.90;;;;;;5084954;28;20013;-69
2021/07/25 04:23:04;;;;;;;3.35;2.50;;;22.60;86.10;;;;;;5087522;28;20379;-70
2021/07/25 04:25:31;;;;;;;4.40;2.63;;;22.60;85.50;;;;;;5091397;28;20020;-70
2021/07/25 04:27:58;;;;;;;4.70;2.40;;;22.50;85.10;;;;;;5091806;28;20139;-69
2021/07/25 04:30:28;;;;;;;3.58;2.28;;;22.60;84.60;;;;;;5088694;28;20039;-70
2021/07/25 04:32:55;;;;;;;3.88;2.40;;;22.50;83.90;;;;;;5089082;28;20404;-70
2021/07/25 04:35:21;;;;;;;4.10;2.78;;;22.50;84.00;;;;;;5088641;28;20442;-68
2021/07/25 04:37:57;;;;;;;3.67;2.58;;;22.50;83.90;;;;;;5088709;28;20043;-67
2021/07/25 04:40:26;;;;;;;6.07;3.25;;;22.50;83.30;;;;;;5093910;28;20035;-67
2021/07/25 04:42:57;;;;;;;3.00;2.17;;;22.40;83.80;;;;;;5092465;28;20468;-67
2021/07/25 04:45:48;;;;;;;9.05;3.10;;;22.40;82.50;;;;;;5086416;28;20051;-67
2021/07/25 04:48:30;;;;;;;2.47;1.27;;;22.40;81.70;;;;;;5081694;28;20020;-67
2021/07/25 04:51:03;;;;;;;4.50;1.85;;;22.40;80.30;;;;;;5085503;28;20081;-67
2021/07/25 04:53:42;;;;;;;1.58;1.05;;;22.30;80.40;;;;;;5086910;28;20090;-67
2021/07/25 04:56:13;;;;;;;5.75;2.67;;;22.20;80.30;;;;;;5089441;28;20039;-68
2021/07/25 04:58:56;;;;;;;4.70;2.85;;;22.20;80.70;;;;;;5093553;28;20036;-67
2021/07/25 05:01:27;;;;;;;;;;;22.10;81.70;;;;;;5080270;28;20412;-67
2021/07/25 05:03:53;;;;;;;4.35;2.72;;;22.10;80.40;;;;;;5092473;28;19930;-67
2021/07/25 05:06:21;;;;;;;5.25;3.40;;;22.10;80.60;;;;;;5094301;28;20035;-67
2021/07/25 05:08:48;;;;;;;4.05;2.20;;;22.10;81.20;;;;;;5079517;28;20028;-67
2021/07/25 05:11:19;;;;;;;6.68;3.75;;;22.00;80.80;;;;;;5090400;28;20040;-67
2021/07/25 05:13:49;;;;;;;5.10;2.20;;;22.10;81.80;;;;;;5089896;28;20029;-67
2021/07/25 05:16:26;;;;;;;7.38;2.63;;;22.00;81.10;;;;;;5092973;28;20027;-67
2021/07/25 05:19:27;;;;;;;3.25;2.17;;;22.00;81.50;;;;;;5088895;28;20017;-67
2021/07/25 05:22:04;;;;;;;1.63;1.38;;;21.90;81.50;;;;;;5054678;28;20494;-67
2021/07/25 05:24:41;;;;;;;6.35;1.95;;;21.90;81.50;;;;;;5091234;28;20509;-67
2021/07/25 05:27:08;;;;;;;3.33;2.22;;;21.90;82.10;;;;;;5086977;28;20027;-68
2021/07/25 05:29:34;;;;;;;3.15;1.40;;;21.80;82.30;;;;;;5085500;28;20040;-67
2021/07/25 05:32:00;;;;;;;2.05;1.75;;;21.90;82.30;;;;;;5092747;28;20039;-67
2021/07/25 05:34:26;;;;;;;4.35;2.03;;;21.80;82.50;;;;;;5080874;28;20024;-67
2021/07/25 05:36:51;;;;;;;3.15;1.92;;;21.80;82.80;;;;;;5091467;28;20387;-67
2021/07/25 05:39:18;;;;;;;1.88;1.48;;;21.80;82.80;;;;;;5092736;28;20539;-67
2021/07/25 05:41:43;;;;;;;5.63;1.55;;;21.80;82.70;;;;;;5085122;28;20024;-67
2021/07/25 05:44:09;;;;;;;5.65;2.15;;;21.80;82.70;;;;;;5081574;28;20016;-67
2021/07/25 05:46:34;;;;;;;1.77;1.60;;;21.80;82.90;;;;;;5078906;28;20433;-67
2021/07/25 05:49:00;;;;;;;3.00;1.58;;;21.80;82.80;;;;;;5082889;28;20480;-67
2021/07/25 05:51:26;;;;;;;2.15;1.10;;;21.80;83.10;;;;;;5084635;28;20044;-67
2021/07/25 05:53:51;;;;;;;4.82;1.92;;;21.70;83.30;;;;;;5092866;28;20040;-67
2021/07/25 05:56:17;;;;;;;4.57;2.30;;;21.70;84.00;;;;;;5091691;28;20093;-66
2021/07/25 05:58:43;;;;;;;2.65;1.80;;;21.70;84.70;;;;;;5090715;28;20031;-68
2021/07/25 06:01:08;;;;;;;3.65;2.40;;;21.60;85.00;;;;;;5089951;28;20081;-66
2021/07/25 06:03:34;;;;;;;6.78;2.67;;;21.60;85.50;;;;;;5091578;28;20028;-66
2021/07/25 06:05:59;;;;;;;3.38;2.15;;;21.50;85.80;;;;;;5093284;28;20042;-66
2021/07/25 06:08:25;;;;;;;5.57;3.20;;;21.50;86.10;;;;;;5088380;28;20540;-66
2021/07/25 06:10:51;;;;;;;3.92;2.70;;;21.50;86.30;;;;;;5089448;28;20036;-66
2021/07/25 06:13:16;;;;;;;4.55;3.08;;;21.40;86.40;;;;;;5086574;28;20467;-66
2021/07/25 06:15:42;;;;;;;5.65;2.53;;;21.40;86.60;;;;;;5086574;28;20024;-66
2021/07/25 06:18:08;;;;;;;7.03;3.53;;;21.40;86.60;;;;;;5077695;28;20024;-67
2021/07/25 06:20:34;;;;;;;6.57;2.40;;;21.40;86.80;;;;;;5086220;28;20024;-66
2021/07/25 06:23:00;;;;;;;5.57;3.17;;;21.40;87.00;;;;;;5091172;28;20540;-66
2021/07/25 06:25:33;;;;;;;4.93;2.72;;;21.40;87.10;;;;;;5082929;28;20028;-66
2021/07/25 06:28:02;;;;;;;4.90;2.05;;;21.40;87.30;;;;;;5087081;28;20436;-66
2021/07/25 06:30:28;;;;;;;3.60;2.42;;;21.40;87.50;;;;;;5085079;28;20112;-66
2021/07/25 06:32:56;;;;;;;8.15;2.95;;;21.40;87.30;;;;;;5084588;28;20055;-66
2021/07/25 06:35:26;;;;;;;4.55;3.17;;;21.40;87.70;;;;;;5076045;28;20384;-66
2021/07/25 06:37:52;;;;;;;5.43;2.78;;;21.40;87.60;;;;;;5073967;28;20043;-66
2021/07/25 06:40:18;;;;;;;3.58;2.58;;;21.50;87.80;;;;;;5076566;28;20036;-66
2021/07/25 06:42:44;;;;;;;2.30;1.63;;;21.40;87.80;;;;;;5092351;28;20054;-66
2021/07/25 06:45:10;;;;;;;2.28;1.50;;;21.50;88.00;;;;;;5078825;28;20460;-66
2021/07/25 06:47:36;;;;;;;1.88;1.65;;;21.50;87.90;;;;;;5073734;28;20126;-68
2021/07/25 06:50:02;;;;;;;3.25;2.05;;;21.50;87.80;;;;;;5085138;28;20123;-66
2021/07/25 06:52:27;;;;;;;5.75;3.35;;;21.50;87.80;;;;;;5088192;28;20040;-66
2021/07/25 06:54:53;;;;;;;4.28;1.80;;;21.60;88.00;;;;;;5090895;28;20383;-66
2021/07/25 06:57:19;;;;;;;6.75;2.25;;;21.60;88.10;;;;;;5090077;28;20036;-66
2021/07/25 06:59:44;;;;;;;7.13;3.35;;;21.60;88.20;;;;;;5087701;28;20028;-66
2021/07/25 07:02:10;;;;;;;6.70;2.83;;;21.60;88.30;;;;;;5090116;28;20031;-66
2021/07/25 07:04:36;;;;;;;4.45;2.20;;;21.60;88.00;;;;;;5091541;28;20028;-66
2021/07/25 07:07:01;;;;;;;2.25;1.65;;;21.70;88.10;;;;;;5090649;28;20034;-66
2021/07/25 07:09:27;;;;;;;4.75;3.05;;;21.70;88.10;;;;;;5091485;28;20027;-66
2021/07/25 07:11:52;;;;;;;5.70;3.33;;;21.70;88.40;;;;;;5089967;28;20124;-66
2021/07/25 07:14:18;;;;;;;3.75;2.38;;;21.60;88.60;;;;;;5086271;28;20371;-67
2021/07/25 07:16:44;;;;;;;7.45;3.53;;;21.60;88.60;;;;;;5086140;28;20739;-67
2021/07/25 07:19:09;;;;;;;3.55;2.08;;;21.70;88.40;;;;;;5091477;28;20036;-67
2021/07/25 07:21:35;;;;;;;3.05;2.30;;;21.70;88.40;;;;;;5093662;28;20044;-67
2021/07/25 07:24:01;;;;;;;6.78;4.07;;;21.70;88.40;;;;;;5094328;28;20020;-66
2021/07/25 07:26:26;;;;;;;5.30;2.88;;;21.70;88.30;;;;;;5094467;28;20032;-66
2021/07/25 07:28:52;;;;;;;6.05;3.63;;;21.80;88.50;;;;;;5092241;28;20052;-66
2021/07/25 07:31:18;;;;;;;4.28;2.78;;;21.80;88.50;;;;;;5094389;28;20035;-66
2021/07/25 07:33:44;;;;;;;5.85;3.72;;;21.80;88.50;;;;;;5094676;28;20063;-66
2021/07/25 07:36:09;;;;;;;6.55;3.05;;;21.80;88.50;;;;;;5093786;28;20107;-66
2021/07/25 07:38:35;;;;;;;3.83;1.92;;;21.80;88.50;;;;;;5095166;28;20135;-66
2021/07/25 07:41:00;;;;;;;5.60;2.97;;;21.80;88.50;;;;;;5094686;28;20055;-66
2021/07/25 07:43:26;;;;;;;6.47;3.33;;;21.80;88.50;;;;;;5093487;28;20379;-66
2021/07/25 07:45:52;;;;;;;7.07;3.40;;;21.90;88.50;;;;;;5094711;28;20111;-66
2021/07/25 07:48:19;;;;;;;6.28;2.97;;;22.00;88.50;;;;;;5094595;28;20064;-66
2021/07/25 07:50:45;;;;;;;4.28;3.00;;;22.00;88.20;;;;;;5093756;28;20114;-66
2021/07/25 07:53:11;;;;;;;4.15;2.20;;;22.00;88.20;;;;;;5092335;28;20173;-67
2021/07/25 07:55:37;;;;;;;8.00;4.20;;;22.00;88.30;;;;;;5092146;28;20494;-67
2021/07/25 07:58:03;;;;;;;4.32;3.08;;;22.00;88.30;;;;;;5094431;28;20032;-67
2021/07/25 08:00:29;;;;;;;4.28;2.58;;;22.10;88.20;;;;;;5092958;28;20020;-66
2021/07/25 08:02:55;;;;;;;4.13;2.63;;;22.10;88.10;;;;;;5094166;28;20383;-69
2021/07/25 08:05:20;;;;;;;3.20;2.03;;;22.20;87.90;;;;;;5093925;28;20149;-65
2021/07/25 08:07:47;;;;;;;5.43;2.70;;;22.10;87.70;;;;;;5093311;28;20050;-66
2021/07/25 08:10:13;;;;;;;3.70;2.17;;;22.20;87.70;;;;;;5091606;28;20425;-68
2021/07/25 08:12:40;;;;;;;5.65;2.72;;;22.20;87.50;;;;;;5092821;28;20081;-67
2021/07/25 08:15:07;;;;;;;2.60;1.88;;;22.20;87.50;;;;;;5091228;28;20028;-67
2021/07/25 08:17:33;;;;;;;3.40;1.95;;;22.20;87.30;;;;;;5093764;28;20101;-68
2021/07/25 08:19:59;;;;;;;2.10;1.40;;;22.20;87.00;;;;;;5091631;28;20023;-67
2021/07/25 08:22:25;;;;;;;4.25;2.47;;;22.30;86.90;;;;;;5092084;28;20024;-68
2021/07/25 08:24:51;;;;;;;2.03;1.52;;;22.30;86.90;;;;;;5093011;28;20012;-69
2021/07/25 08:27:16;;;;;;;4.43;2.35;;;22.30;86.90;;;;;;5093871;28;20028;-69
2021/07/25 08:29:42;;;;;;;6.72;3.72;;;22.30;87.10;;;;;;5093983;28;20081;-69
2021/07/25 08:32:12;;;;;;;2.30;1.40;;;22.40;87.30;;;;;;5091127;28;20372;-69
2021/07/25 08:34:38;;;;;;;3.17;2.13;;;22.40;86.90;;;;;;5092737;28;20053;-68
2021/07/25 08:37:04;;;;;;;4.22;2.38;;;22.50;86.80;;;;;;5093790;28;20057;-68
2021/07/25 08:39:30;;;;;;;1.48;1.08;;;22.60;86.90;;;;;;5092448;28;20032;-68
2021/07/25 08:42:01;;;;;;;3.20;2.20;;;22.60;86.50;;;;;;5093883;28;20039;-68
2021/07/25 08:44:42;;;;;;;4.35;2.85;;;22.60;85.90;;;;;;5094186;28;20031;-68
2021/07/25 08:47:15;;;;;;;3.88;2.47;;;22.70;85.50;;;;;;5092583;28;20028;-68
2021/07/25 08:49:49;;;;;;;5.53;3.13;;;22.70;85.20;;;;;;5090553;28;20027;-68
2021/07/25 08:52:32;;;;;;;7.32;3.88;;;22.70;85.30;;;;;;5092288;28;20035;-68
2021/07/25 08:55:10;;;;;;;2.72;2.10;;;22.70;85.40;;;;;;5092491;28;20039;-67
2021/07/25 08:57:39;;;;;;;6.07;3.75;;;22.80;85.10;;;;;;5092434;28;20498;-71
2021/07/25 09:00:08;;;;;;;8.20;3.00;;;22.70;84.70;;;;;;5090033;28;20035;-66
2021/07/25 09:02:34;;;;;;;4.38;2.38;;;22.80;84.60;;;;;;5093625;28;20031;-67
2021/07/25 09:05:00;;;;;;;5.25;2.95;;;22.80;84.50;;;;;;5093336;28;20016;-67
2021/07/25 09:07:31;;;;;;;10.75;3.00;;;22.80;84.40;;;;;;5087803;28;20502;-66
2021/07/25 09:10:06;;;;;;;3.90;2.75;;;22.80;84.50;;;;;;5087673;28;20082;-69
2021/07/25 09:12:32;;;;;;;13.05;4.95;;;22.80;84.80;;;;;;5090639;28;20102;-67
2021/07/25 09:15:02;;;;;;;5.93;2.97;;;22.90;85.10;;;;;;5087999;28;20475;-67
2021/07/25 09:17:29;;;;;;;3.70;2.15;;;23.00;84.80;;;;;;5086500;28;20032;-67
2021/07/25 09:20:21;;;;;;;6.53;3.85;;;22.90;84.40;;;;;;5089136;28;20031;-67
2021/07/25 09:22:49;;;;;;;9.68;4.13;;;23.00;84.40;;;;;;5090326;28;20471;-67
2021/07/25 09:25:21;;;;;;;3.42;2.13;;;23.10;84.40;;;;;;5089985;28;20024;-67
2021/07/25 09:27:54;;;;;;;7.72;3.30;;;23.10;84.30;;;;;;5090059;28;20035;-67
2021/07/25 09:30:21;;;;;;;3.13;2.20;;;23.10;84.10;;;;;;5090930;28;20031;-67
2021/07/25 09:32:49;;;;;;;8.38;4.78;;;23.10;84.00;;;;;;5089952;28;20369;-67
2021/07/25 09:35:28;;;;;;;6.45;3.38;;;23.20;83.80;;;;;;5090311;28;20024;-70
2021/07/25 09:37:55;;;;;;;7.97;3.88;;;23.30;83.80;;;;;;5090276;28;20542;-70
2021/07/25 09:40:29;;;;;;;7.00;3.45;;;23.30;83.70;;;;;;5090258;28;20043;-70
2021/07/25 09:43:09;;;;;;;4.35;3.08;;;23.30;83.50;;;;;;5089473;28;20035;-72
2021/07/25 09:45:59;;;;;;;5.25;3.15;;;23.30;83.20;;;;;;5089616;28;20020;-74
2021/07/25 09:48:30;;;;;;;5.75;3.50;;;23.40;83.30;;;;;;5087222;28;20051;-74
2021/07/25 09:50:59;;;;;;;9.00;4.22;;;23.40;83.10;;;;;;5087478;28;20024;-71
2021/07/25 09:53:41;;;;;;;8.60;4.10;;;23.40;83.20;;;;;;5088332;28;20031;-71
2021/07/25 09:56:19;;;;;;;4.63;3.35;;;23.50;83.30;;;;;;5088774;28;20039;-71
2021/07/25 09:58:45;;;;;;;6.60;3.65;;;23.50;83.20;;;;;;5088516;28;20035;-71
2021/07/25 10:01:18;;;;;;;4.65;2.75;;;23.50;82.90;;;;;;5089391;28;20375;-70
2021/07/25 10:03:44;;;;;;;5.03;2.65;;;23.60;82.70;;;;;;5090592;28;20020;-70
2021/07/25 10:06:23;;;;;;;7.43;4.85;;;23.60;82.40;;;;;;5092658;28;20028;-71
2021/07/25 10:09:07;;;;;;;9.77;3.67;;;23.60;82.50;;;;;;5092557;28;20114;-71
2021/07/25 10:11:34;;;;;;;6.65;3.38;;;23.60;82.40;;;;;;5083961;28;20044;-69
2021/07/25 10:14:00;;;;;;;4.95;3.15;;;23.60;82.10;;;;;;5092315;28;20027;-68
2021/07/25 10:16:27;;;;;;;9.13;5.03;;;23.70;82.20;;;;;;5090118;28;20048;-69
2021/07/25 10:18:55;;;;;;;10.13;5.38;;;23.70;82.30;;;;;;5091554;28;20081;-70
2021/07/25 10:21:22;;;;;;;11.63;5.35;;;23.70;82.50;;;;;;5091871;28;20028;-69
2021/07/25 10:23:52;;;;;;;9.85;5.20;;;23.80;82.30;;;;;;5087080;28;20032;-69
2021/07/25 10:26:23;;;;;;;8.20;5.85;;;23.80;82.30;;;;;;5089966;28;20024;-69
2021/07/25 10:28:56;;;;;;;10.20;6.05;;;23.80;82.30;;;;;;5090180;28;20040;-69
2021/07/25 10:31:24;;;;;;;8.73;5.53;;;23.80;82.10;;;;;;5089616;28;20040;-69
2021/07/25 10:33:54;;;;;;;11.20;6.03;;;23.90;82.20;;;;;;5090894;28;20024;-69
2021/07/25 10:36:21;;;;;;;14.52;6.07;;;23.90;82.30;;;;;;5090530;28;20498;-70
2021/07/25 10:38:48;;;;;;;10.38;5.47;;;23.90;82.50;;;;;;5090229;28;20097;-70
2021/07/25 10:41:19;;;;;;;10.48;6.03;;;23.90;82.40;;;;;;5090191;28;20387;-69
2021/07/25 10:43:44;;;;;;;9.70;5.25;;;24.00;82.30;;;;;;5089791;28;20110;-69
2021/07/25 10:46:19;;;;;;;7.57;4.30;;;24.00;82.60;;;;;;5089346;28;20466;-70
2021/07/25 10:49:00;;;;;;;10.32;6.47;;;24.00;82.10;;;;;;5087775;28;20024;-69
2021/07/25 10:51:27;;;;;;;11.65;6.30;;;24.10;82.30;;;;;;5089490;28;20119;-69
2021/07/25 10:53:52;;;;;;;10.68;5.03;;;24.10;82.10;;;;;;5089648;28;20082;-70
2021/07/25 10:56:55;;;;;;;8.25;4.65;;;24.20;82.00;;;;;;5092587;28;20032;-69
2021/07/25 10:59:43;;;;;;;8.63;5.03;;;24.10;82.10;;;;;;5094650;28;20108;-69
2021/07/25 11:02:14;;;;;;;13.43;7.70;;;24.20;82.30;;;;;;5089864;28;20115;-70
2021/07/25 11:04:55;;;;;;;12.00;5.60;;;24.20;82.40;;;;;;5085972;28;20506;-72
2021/07/25 11:07:24;;;;;;;14.25;6.95;;;24.20;82.40;;;;;;5091609;28;20532;-71
2021/07/25 11:10:00;;;;;;;14.30;7.85;;;24.30;82.80;;;;;;5093372;28;20028;-71
2021/07/25 11:12:48;;;;;;;14.18;8.05;;;24.30;83.00;;;;;;5092560;28;20048;-71
2021/07/25 11:15:35;;;;;;;14.38;6.82;;;24.40;82.90;;;;;;5092637;28;20024;-71
2021/07/25 11:18:15;;;;;;;14.43;8.52;;;24.40;82.80;;;;;;5093521;28;20479;-72
2021/07/25 11:20:45;;;;;;;7.32;5.38;;;24.50;82.50;;;;;;5089119;28;20066;-71
2021/07/25 11:23:13;;;;;;;7.07;4.53;;;24.60;82.40;;;;;;5092237;28;20023;-71
2021/07/25 11:25:40;;;;;;;18.15;9.68;;;24.60;82.00;;;;;;5091707;28;20455;-71
2021/07/25 11:28:08;;;;;;;21.45;12.32;;;24.60;82.10;;;;;;5089881;28;20032;-69
2021/07/25 11:30:49;;;;;;;18.70;10.75;;;24.70;82.10;;;;;;5093804;28;20035;-72
2021/07/25 11:33:37;;;;;;;14.57;7.50;;;24.70;82.10;;;;;;5092117;28;20040;-75
2021/07/25 11:36:04;;;;;;;17.08;10.20;;;24.80;81.90;;;;;;5090536;28;20024;-73
2021/07/25 11:38:32;;;;;;;18.08;9.13;;;24.90;81.80;;;;;;5091216;28;20099;-73
2021/07/25 11:40:58;;;;;;;19.58;10.43;;;25.00;81.60;;;;;;5088907;28;20036;-73
2021/07/25 11:43:24;;;;;;;21.27;12.05;;;25.00;81.20;;;;;;5091209;28;20111;-71
2021/07/25 11:45:50;;;;;;;7.45;4.53;;;25.00;81.60;;;;;;5090131;28;20174;-71
2021/07/25 11:48:20;;;;;;;13.00;7.25;;;25.10;81.40;;;;;;5090377;28;20155;-72
2021/07/25 11:50:46;;;;;;;15.40;10.07;;;25.20;80.80;;;;;;5090903;28;20379;-72
2021/07/25 11:53:12;;;;;;;18.77;11.63;;;25.20;80.30;;;;;;5091366;28;20075;-72
2021/07/25 11:55:38;;;;;;;20.63;11.20;;;25.30;80.20;;;;;;5090719;28;20063;-72
2021/07/25 11:58:10;;;;;;;18.67;10.93;;;25.30;80.10;;;;;;5089585;28;20059;-71
2021/07/25 12:00:37;;;;;;;14.80;9.00;;;25.40;79.90;;;;;;5088202;28;20035;-72
2021/07/25 12:03:03;;;;;;;19.98;10.02;;;25.40;79.50;;;;;;5090201;28;20123;-72
2021/07/25 12:05:30;;;;;;;15.75;9.52;;;25.40;79.30;;;;;;5091074;28;20527;-72
2021/07/25 12:07:55;;;;;;;18.48;12.00;;;25.50;79.20;;;;;;5090131;28;20063;-72
2021/07/25 12:10:31;;;;;;;15.30;7.78;;;25.40;79.70;;;;;;5089409;28;20067;-72
2021/07/25 12:13:05;;;;;;;19.95;8.63;;;25.50;79.30;;;;;;5091316;28;20372;-72
2021/07/25 12:15:31;;;;;;;20.63;10.85;;;25.50;79.60;;;;;;5089287;28;20115;-73
2021/07/25 12:18:08;;;;;;;19.75;12.00;;;25.40;79.90;;;;;;5086157;28;20080;-72
2021/07/25 12:20:35;;;;;;;19.80;13.05;;;25.40;80.30;;;;;;5088084;28;20479;-72
2021/07/25 12:23:08;;;;;;;24.35;14.40;;;25.50;80.60;;;;;;5089272;28;20038;-72
2021/07/25 12:25:38;;;;;;;24.45;13.95;;;25.50;81.20;;;;;;5090197;28;20032;-72
2021/07/25 12:28:13;;;;;;;23.67;14.52;;;25.60;81.40;;;;;;5090665;28;20031;-72
2021/07/25 12:30:49;;;;;;;18.90;12.90;;;25.60;81.80;;;;;;5090187;28;20036;-72
2021/07/25 12:33:16;;;;;;;19.70;12.15;;;25.60;81.70;;;;;;5090509;28;20038;-72
2021/07/25 12:35:42;;;;;;;20.65;13.80;;;25.60;81.70;;;;;;5090762;28;20028;-77
2021/07/25 12:38:13;;;;;;;23.20;14.73;;;25.60;81.90;;;;;;5091893;28;20577;-70
2021/07/25 12:40:56;;;;;;;23.25;14.43;;;25.60;82.00;;;;;;5087224;28;20059;-70
2021/07/25 12:43:26;;;;;;;22.95;15.07;;;25.70;82.10;;;;;;5091068;28;20028;-70
2021/07/25 12:45:59;;;;;;;21.85;14.77;;;25.70;81.80;;;;;;5088506;28;20134;-70
2021/07/25 12:48:26;;;;;;;;;;;25.70;81.60;;;;;;5092837;28;20039;-70